createdAt,value
2017-10-24T00:00:26.375Z,11.07
2017-10-24T00:02:54.825Z,11.10
2017-10-24T00:05:23.406Z,11.12
2017-10-24T00:07:51.850Z,11.08
2017-10-24T00:10:21.090Z,11.10
2017-10-24T00:12:49.528Z,11.10
2017-10-24T00:15:18.772Z,11.04
2017-10-24T00:17:47.219Z,11.01
2017-10-24T00:20:16.416Z,11.04
2017-10-24T00:22:45.750Z,11.07
2017-10-24T00:25:14.199Z,11.05
2017-10-24T00:27:43.431Z,11.08
2017-10-24T00:30:11.886Z,11.04
2017-10-24T00:32:40.349Z,11.07
2017-10-24T00:35:09.561Z,11.04
2017-10-24T00:37:38.790Z,11.04
2017-10-24T00:40:07.242Z,10.96
2017-10-24T00:42:36.477Z,10.93
2017-10-24T00:45:04.925Z,10.91
2017-10-24T00:47:34.252Z,10.89
2017-10-24T00:50:02.698Z,10.87
2017-10-24T00:52:31.901Z,10.90
2017-10-24T00:55:01.129Z,10.96
2017-10-24T00:57:29.622Z,10.92
2017-10-24T00:59:58.081Z,10.94
2017-10-24T01:02:26.518Z,10.95
2017-10-24T01:04:54.981Z,10.90
2017-10-24T01:07:23.425Z,10.94
2017-10-24T01:09:51.922Z,10.91
2017-10-24T01:12:20.405Z,10.91
2017-10-24T01:14:48.877Z,10.93
2017-10-24T01:17:17.313Z,10.96
2017-10-24T01:19:45.882Z,11.01
2017-10-24T01:22:14.328Z,11.02
2017-10-24T01:24:42.774Z,10.98
2017-10-24T01:27:12.001Z,11.05
2017-10-24T01:29:40.450Z,10.99
2017-10-24T01:32:09.681Z,11.04
2017-10-24T01:34:38.126Z,11.06
2017-10-24T01:37:06.589Z,11.05
2017-10-24T01:39:35.050Z,11.06
2017-10-24T01:42:03.632Z,11.04
2017-10-24T01:44:32.074Z,11.06
2017-10-24T01:47:01.307Z,11.07
2017-10-24T01:49:29.758Z,11.05
2017-10-24T01:51:59.009Z,11.01
2017-10-24T01:54:27.454Z,11.02
2017-10-24T01:56:55.888Z,10.99
2017-10-24T01:59:24.358Z,10.99
2017-10-24T02:01:52.815Z,11.02
2017-10-24T02:04:21.277Z,10.98
2017-10-24T02:06:49.712Z,10.94
2017-10-24T02:09:18.177Z,10.91
2017-10-24T02:11:46.649Z,10.82
2017-10-24T02:14:15.109Z,10.75
2017-10-24T02:16:43.610Z,10.76
2017-10-24T02:19:12.074Z,10.74
2017-10-24T02:21:40.519Z,10.64
2017-10-24T02:24:09.752Z,10.60
2017-10-24T02:26:38.198Z,10.58
2017-10-24T02:29:06.669Z,10.51
2017-10-24T02:31:35.111Z,10.47
2017-10-24T02:34:03.558Z,10.48
2017-10-24T02:36:32.790Z,10.50
2017-10-24T02:39:01.281Z,10.48
2017-10-24T02:41:29.785Z,10.48
2017-10-24T02:43:58.224Z,10.49
2017-10-24T02:46:26.681Z,10.49
2017-10-24T02:48:55.881Z,10.51
2017-10-24T02:51:25.109Z,10.52
2017-10-24T02:53:53.609Z,10.54
2017-10-24T02:56:22.101Z,10.57
2017-10-24T02:58:50.559Z,10.59
2017-10-24T03:01:19.007Z,10.58
2017-10-24T03:03:48.232Z,10.60
2017-10-24T03:06:16.677Z,10.63
2017-10-24T03:08:45.137Z,10.67
2017-10-24T03:11:13.589Z,10.67
2017-10-24T03:13:42.053Z,10.70
2017-10-24T03:16:10.498Z,10.70
2017-10-24T03:18:38.971Z,10.71
2017-10-24T03:21:07.421Z,10.69
2017-10-24T03:23:35.882Z,10.70
2017-10-24T03:26:04.316Z,10.70
2017-10-24T03:28:32.781Z,10.73
2017-10-24T03:31:01.231Z,10.71
2017-10-24T03:33:29.668Z,10.68
2017-10-24T03:35:58.137Z,10.72
2017-10-24T03:38:26.688Z,10.73
2017-10-24T03:40:55.157Z,10.69
2017-10-24T03:43:23.602Z,10.67
2017-10-24T03:45:52.129Z,10.68
2017-10-24T03:48:20.605Z,10.66
2017-10-24T03:50:49.082Z,10.62
2017-10-24T03:53:17.523Z,10.61
2017-10-24T03:55:45.994Z,10.66
2017-10-24T03:58:14.448Z,10.64
2017-10-24T04:00:42.936Z,10.68
2017-10-24T04:03:11.385Z,10.66
2017-10-24T04:05:39.829Z,10.64
2017-10-24T04:08:08.305Z,10.64
2017-10-24T04:10:36.849Z,10.65
2017-10-24T04:13:05.330Z,10.68
2017-10-24T04:15:33.770Z,10.67
2017-10-24T04:18:03.000Z,10.65
2017-10-24T04:20:31.449Z,10.64
2017-10-24T04:22:59.910Z,10.65
2017-10-24T04:25:28.352Z,10.64
2017-10-24T04:27:56.842Z,10.67
2017-10-24T04:30:25.286Z,10.65
2017-10-24T04:32:54.494Z,10.68
2017-10-24T04:35:23.729Z,10.69
2017-10-24T04:37:52.178Z,10.68
2017-10-24T04:40:21.512Z,10.67
2017-10-24T04:42:49.962Z,10.61
2017-10-24T04:45:18.420Z,10.63
2017-10-24T04:47:46.954Z,10.59
2017-10-24T04:50:15.534Z,10.55
2017-10-24T04:52:43.988Z,10.48
2017-10-24T04:55:13.137Z,10.48
2017-10-24T04:57:41.583Z,10.52
2017-10-24T05:00:10.058Z,10.56
2017-10-24T05:02:38.502Z,10.57
2017-10-24T05:05:06.981Z,10.52
2017-10-24T05:07:35.426Z,10.57
2017-10-24T05:10:03.874Z,10.59
2017-10-24T05:12:33.108Z,10.59
2017-10-24T05:15:01.686Z,10.61
2017-10-24T05:17:30.157Z,10.62
2017-10-24T05:19:58.602Z,10.62
2017-10-24T05:22:27.064Z,10.61
2017-10-24T05:24:55.510Z,10.60
2017-10-24T05:27:23.985Z,10.60
2017-10-24T05:29:52.433Z,10.56
2017-10-24T05:32:21.673Z,10.50
2017-10-24T05:34:50.166Z,10.53
2017-10-24T05:37:18.646Z,10.52
2017-10-24T05:39:47.114Z,10.55
2017-10-24T05:42:15.557Z,10.58
2017-10-24T05:44:44.804Z,10.51
2017-10-24T05:47:13.240Z,10.49
2017-10-24T05:49:42.572Z,10.52
2017-10-24T05:52:11.010Z,10.55
2017-10-24T05:54:39.478Z,10.61
2017-10-24T05:57:08.039Z,10.62
2017-10-24T05:59:36.509Z,10.63
2017-10-24T06:02:06.746Z,10.60
2017-10-24T06:04:35.191Z,10.60
2017-10-24T06:07:04.430Z,10.59
2017-10-24T06:09:32.873Z,10.63
2017-10-24T06:12:02.237Z,10.60
2017-10-24T06:14:30.677Z,10.58
2017-10-24T06:16:59.142Z,10.60
2017-10-24T06:19:28.350Z,10.55
2017-10-24T06:21:56.854Z,10.60
2017-10-24T06:24:25.326Z,10.62
2017-10-24T06:26:53.814Z,10.64
2017-10-24T06:29:22.262Z,10.61
2017-10-24T06:31:51.522Z,10.63
2017-10-24T06:34:19.975Z,10.63
2017-10-24T06:36:48.457Z,10.64
2017-10-24T06:39:16.954Z,10.64
2017-10-24T06:41:45.397Z,10.59
2017-10-24T06:44:14.634Z,10.63
2017-10-24T06:46:43.072Z,10.60
2017-10-24T06:49:12.314Z,10.63
2017-10-24T06:51:40.790Z,10.63
2017-10-24T06:54:09.253Z,10.60
2017-10-24T06:56:37.750Z,10.58
2017-10-24T06:59:06.218Z,10.68
2017-10-24T07:01:34.662Z,10.67
2017-10-24T07:04:03.134Z,10.60
2017-10-24T07:06:31.581Z,10.63
2017-10-24T07:09:00.113Z,10.66
2017-10-24T07:11:29.343Z,10.65
2017-10-24T07:13:57.845Z,10.65
2017-10-24T07:16:26.296Z,10.65
2017-10-24T07:18:55.517Z,10.64
2017-10-24T07:21:23.984Z,10.68
2017-10-24T07:23:52.425Z,10.72
2017-10-24T07:26:20.935Z,10.70
2017-10-24T07:28:50.141Z,10.74
2017-10-24T07:31:18.656Z,10.77
2017-10-24T07:33:47.135Z,10.84
2017-10-24T07:36:15.618Z,10.83
2017-10-24T07:38:44.068Z,10.83
2017-10-24T07:41:12.566Z,10.81
2017-10-24T07:43:41.013Z,10.86
2017-10-24T07:46:10.364Z,10.90
2017-10-24T07:48:38.841Z,10.99
2017-10-24T07:51:07.321Z,11.04
2017-10-24T07:53:35.769Z,11.01
2017-10-24T07:56:05.014Z,11.06
2017-10-24T07:58:33.487Z,11.14
2017-10-24T08:01:01.930Z,11.09
2017-10-24T08:03:31.201Z,11.07
2017-10-24T08:05:59.754Z,11.06
2017-10-24T08:08:28.226Z,11.13
2017-10-24T08:10:56.683Z,11.26
2017-10-24T08:13:25.921Z,11.29
2017-10-24T08:15:54.366Z,11.34
2017-10-24T08:18:23.705Z,11.40
2017-10-24T08:20:52.153Z,11.44
2017-10-24T08:23:21.386Z,11.51
2017-10-24T08:25:49.866Z,11.62
2017-10-24T08:28:18.333Z,11.71
2017-10-24T08:30:46.780Z,11.76
2017-10-24T08:33:16.132Z,11.77
2017-10-24T08:35:44.574Z,11.94
2017-10-24T08:38:13.916Z,11.91
2017-10-24T08:40:42.393Z,11.92
2017-10-24T08:43:10.874Z,11.95
2017-10-24T08:45:39.360Z,11.96
2017-10-24T08:48:07.849Z,12.03
2017-10-24T08:50:36.313Z,12.06
2017-10-24T08:53:04.756Z,12.11
2017-10-24T08:55:34.002Z,12.23
2017-10-24T08:58:03.210Z,12.29
2017-10-24T09:00:31.678Z,12.36
2017-10-24T09:03:00.134Z,12.38
2017-10-24T09:05:29.390Z,12.49
2017-10-24T09:07:57.841Z,12.55
2017-10-24T09:10:53.675Z,12.55
2017-10-24T09:16:41.455Z,12.56
2017-10-24T09:22:22.632Z,12.55
2017-10-24T09:24:51.072Z,12.53
2017-10-24T09:27:20.324Z,12.69
2017-10-24T09:29:48.774Z,12.66
2017-10-24T09:32:17.223Z,12.72
2017-10-24T09:34:46.461Z,12.78
2017-10-24T09:37:14.887Z,12.66
2017-10-24T09:39:43.354Z,12.62
2017-10-24T09:42:11.792Z,12.59
2017-10-24T09:44:40.253Z,12.70
2017-10-24T09:47:09.470Z,12.67
2017-10-24T09:49:38.706Z,12.58
2017-10-24T09:52:07.149Z,12.66
2017-10-24T09:54:42.715Z,12.69
2017-10-24T09:57:11.170Z,12.73
2017-10-24T09:59:40.510Z,12.79
2017-10-24T10:02:08.960Z,12.77
2017-10-24T10:04:38.250Z,12.82
2017-10-24T10:07:12.174Z,12.91
2017-10-24T10:09:41.405Z,13.05
2017-10-24T10:12:10.606Z,13.02
2017-10-24T10:14:39.066Z,13.10
2017-10-24T10:17:07.517Z,12.98
2017-10-24T10:19:36.757Z,13.04
2017-10-24T10:22:06.020Z,13.19
2017-10-24T10:24:39.957Z,13.15
2017-10-24T10:27:08.461Z,13.17
2017-10-24T10:29:36.925Z,13.11
2017-10-24T10:32:05.503Z,13.20
2017-10-24T10:34:33.998Z,13.09
2017-10-24T10:37:02.441Z,13.08
2017-10-24T10:39:31.649Z,13.24
2017-10-24T10:42:00.986Z,13.33
2017-10-24T10:44:29.425Z,13.38
2017-10-24T10:46:58.765Z,13.49
2017-10-24T10:49:27.250Z,13.49
2017-10-24T10:51:55.716Z,13.61
2017-10-24T10:54:24.161Z,13.68
2017-10-24T10:56:52.630Z,13.77
2017-10-24T10:59:21.073Z,13.82
2017-10-24T11:01:49.541Z,13.75
2017-10-24T11:04:18.046Z,13.81
2017-10-24T11:06:46.523Z,13.77
2017-10-24T11:09:15.006Z,13.79
2017-10-24T11:11:43.454Z,13.68
2017-10-24T11:14:12.784Z,13.62
2017-10-24T11:16:41.378Z,13.75
2017-10-24T11:19:09.850Z,13.75
2017-10-24T11:21:38.301Z,13.73
2017-10-24T11:24:07.644Z,13.71
2017-10-24T11:26:36.098Z,13.66
2017-10-24T11:29:04.570Z,13.82
2017-10-24T11:31:33.782Z,13.80
2017-10-24T11:34:02.251Z,13.99
2017-10-24T11:36:31.462Z,13.57
2017-10-24T11:38:59.906Z,13.82
2017-10-24T11:41:28.375Z,13.83
2017-10-24T11:43:56.925Z,13.79
2017-10-24T11:46:25.391Z,13.88
2017-10-24T11:48:53.828Z,13.89
2017-10-24T11:51:22.310Z,14.01
2017-10-24T11:53:50.754Z,13.99
2017-10-24T11:56:19.242Z,14.03
2017-10-24T11:58:47.898Z,13.98
2017-10-24T12:01:17.158Z,13.94
2017-10-24T12:03:45.714Z,13.87
2017-10-24T12:06:14.157Z,13.88
2017-10-24T12:08:43.498Z,13.93
2017-10-24T12:11:11.986Z,13.93
2017-10-24T12:13:40.615Z,13.96
2017-10-24T12:16:09.833Z,14.06
2017-10-24T12:18:39.164Z,13.95
2017-10-24T12:21:07.643Z,13.92
2017-10-24T12:23:36.181Z,13.89
2017-10-24T12:26:04.650Z,13.93
2017-10-24T12:28:33.249Z,13.88
2017-10-24T12:31:02.533Z,13.87
2017-10-24T12:33:30.997Z,13.79
2017-10-24T12:35:59.471Z,13.76
2017-10-24T12:38:27.953Z,13.88
2017-10-24T12:40:56.393Z,13.92
2017-10-24T12:43:25.658Z,13.98
2017-10-24T12:49:04.670Z,13.89
2017-10-24T12:51:34.110Z,13.95
2017-10-24T12:54:02.889Z,14.02
2017-10-24T12:56:31.339Z,13.98
2017-10-24T12:58:59.809Z,13.88
2017-10-24T13:01:28.346Z,13.72
2017-10-24T13:03:56.805Z,13.89
2017-10-24T13:06:25.253Z,13.90
2017-10-24T13:08:53.836Z,13.85
2017-10-24T13:11:22.447Z,13.82
2017-10-24T13:13:50.915Z,13.89
2017-10-24T13:16:19.377Z,13.86
2017-10-24T13:18:48.585Z,13.74
2017-10-24T13:21:17.096Z,13.68
2017-10-24T13:23:45.781Z,13.51
2017-10-24T13:26:14.249Z,13.53
2017-10-24T13:28:42.680Z,13.64
2017-10-24T13:31:11.185Z,13.74
2017-10-24T13:33:40.412Z,13.67
2017-10-24T13:36:08.876Z,13.73
2017-10-24T13:38:38.226Z,13.66
2017-10-24T13:41:06.689Z,13.65
2017-10-24T13:43:35.165Z,13.64
2017-10-24T13:46:03.941Z,13.52
2017-10-24T13:48:32.433Z,13.58
2017-10-24T13:51:00.893Z,13.57
2017-10-24T13:53:30.101Z,13.48
2017-10-24T13:55:58.597Z,13.49
2017-10-24T13:58:27.077Z,13.43
2017-10-24T14:00:55.566Z,13.22
2017-10-24T14:03:24.039Z,13.17
2017-10-24T14:05:58.104Z,13.19
2017-10-24T14:08:32.414Z,13.06
2017-10-24T14:11:00.881Z,13.03
2017-10-24T14:13:30.018Z,12.94
2017-10-24T14:15:59.230Z,12.97
2017-10-24T14:18:28.462Z,12.95
2017-10-24T14:20:56.902Z,12.91
2017-10-24T14:23:26.242Z,12.83
2017-10-24T14:25:54.727Z,12.81
2017-10-24T14:28:23.311Z,12.88
2017-10-24T14:30:51.762Z,12.81
2017-10-24T14:33:20.233Z,12.80
2017-10-24T14:35:49.465Z,12.72
2017-10-24T14:38:18.054Z,12.71
2017-10-24T14:40:46.497Z,12.69
2017-10-24T14:43:15.739Z,12.65
2017-10-24T14:45:44.203Z,12.64
2017-10-24T14:48:12.633Z,12.61
2017-10-24T14:50:41.176Z,12.59
2017-10-24T14:53:09.662Z,12.52
2017-10-24T14:55:38.134Z,12.48
2017-10-24T14:58:06.627Z,12.38
2017-10-24T15:00:35.125Z,12.36
2017-10-24T15:03:03.591Z,12.33
2017-10-24T15:05:32.065Z,12.32
2017-10-24T15:08:00.550Z,12.39
2017-10-24T15:10:29.029Z,12.39
2017-10-24T15:12:57.474Z,12.44
2017-10-24T15:15:26.725Z,12.41
2017-10-24T15:17:55.165Z,12.37
2017-10-24T15:20:24.404Z,12.40
2017-10-24T15:22:52.982Z,12.29
2017-10-24T15:25:21.430Z,12.31
2017-10-24T15:27:50.670Z,12.29
2017-10-24T15:30:19.109Z,12.30
2017-10-24T15:32:48.336Z,12.29
2017-10-24T15:35:16.782Z,12.28
2017-10-24T15:37:46.017Z,12.26
2017-10-24T15:40:14.462Z,12.20
2017-10-24T15:42:43.707Z,12.18
2017-10-24T15:45:12.185Z,12.20
2017-10-24T15:47:40.645Z,12.24
2017-10-24T15:50:09.875Z,12.25
2017-10-24T15:52:38.337Z,12.30
2017-10-24T15:55:06.833Z,12.30
2017-10-24T15:57:35.316Z,12.30
2017-10-24T16:00:03.762Z,12.30
2017-10-24T16:02:32.989Z,12.30
2017-10-24T16:05:01.457Z,12.27
2017-10-24T16:07:29.966Z,12.24
2017-10-24T16:09:58.437Z,12.24
2017-10-24T16:12:26.893Z,12.26
2017-10-24T16:14:56.130Z,12.20
2017-10-24T16:17:24.577Z,12.23
2017-10-24T16:19:53.045Z,12.14
2017-10-24T16:22:22.266Z,12.09
2017-10-24T16:24:50.728Z,12.05
2017-10-24T16:27:19.938Z,11.97
2017-10-24T16:29:49.284Z,11.93
2017-10-24T16:32:17.758Z,11.89
2017-10-24T16:34:46.335Z,11.86
2017-10-24T16:37:14.823Z,11.79
2017-10-24T16:39:43.709Z,11.83
2017-10-24T16:42:12.191Z,11.84
2017-10-24T16:44:40.668Z,11.85
2017-10-24T16:47:09.118Z,11.88
2017-10-24T16:49:38.357Z,11.87
2017-10-24T16:52:06.801Z,11.88
2017-10-24T16:54:36.058Z,11.86
2017-10-24T16:57:04.497Z,11.85
2017-10-24T16:59:32.934Z,11.93
2017-10-24T17:02:01.392Z,11.86
2017-10-24T17:04:29.856Z,11.82
2017-10-24T17:06:58.330Z,11.96
2017-10-24T17:09:26.827Z,11.88
2017-10-24T17:11:55.297Z,11.89
2017-10-24T17:14:23.789Z,11.94
2017-10-24T17:16:52.258Z,11.93
2017-10-24T17:19:20.697Z,12.04
2017-10-24T17:21:49.157Z,12.01
2017-10-24T17:24:17.601Z,12.07
2017-10-24T17:26:46.070Z,12.03
2017-10-24T17:29:15.277Z,12.07
2017-10-24T17:31:43.784Z,12.04
2017-10-24T17:34:12.229Z,12.09
2017-10-24T17:36:41.542Z,12.08
2017-10-24T17:39:09.982Z,12.03
2017-10-24T17:41:38.424Z,12.07
2017-10-24T17:44:06.909Z,12.09
2017-10-24T17:46:35.348Z,12.12
2017-10-24T17:49:04.692Z,12.17
2017-10-24T17:51:33.179Z,12.21
2017-10-24T17:54:01.651Z,12.24
2017-10-24T17:56:30.140Z,12.20
2017-10-24T17:58:58.717Z,12.23
2017-10-24T18:01:27.162Z,12.29
2017-10-24T18:03:56.393Z,12.24
2017-10-24T18:06:24.843Z,12.28
2017-10-24T18:08:54.068Z,12.28
2017-10-24T18:11:22.662Z,12.32
2017-10-24T18:13:51.122Z,12.31
2017-10-24T18:16:20.335Z,12.34
2017-10-24T18:18:48.803Z,12.32
2017-10-24T18:21:18.014Z,12.32
2017-10-24T18:23:46.478Z,12.30
2017-10-24T18:26:15.818Z,12.27
2017-10-24T18:28:44.294Z,12.29
2017-10-24T18:31:12.762Z,12.28
2017-10-24T18:33:41.261Z,12.31
2017-10-24T18:36:09.726Z,12.31
2017-10-24T18:38:38.278Z,12.30
2017-10-24T18:41:08.083Z,12.34
2017-10-24T18:43:36.522Z,12.34
2017-10-24T18:46:04.985Z,12.38
2017-10-24T18:48:33.426Z,12.37
2017-10-24T18:51:01.902Z,12.39
2017-10-24T18:53:30.342Z,12.41
2017-10-24T18:55:58.830Z,12.43
2017-10-24T18:58:27.273Z,12.43
2017-10-24T19:00:56.506Z,12.47
2017-10-24T19:03:24.942Z,12.47
2017-10-24T19:05:54.422Z,12.45
2017-10-24T19:08:22.881Z,12.45
2017-10-24T19:10:51.341Z,12.50
2017-10-24T19:13:19.777Z,12.47
2017-10-24T19:15:48.256Z,12.49
2017-10-24T19:18:16.917Z,12.49
2017-10-24T19:20:45.361Z,12.50
2017-10-24T19:23:13.821Z,12.52
2017-10-24T19:25:43.071Z,12.51
2017-10-24T19:28:11.543Z,12.52
2017-10-24T19:30:39.994Z,12.51
2017-10-24T19:33:09.274Z,12.53
2017-10-24T19:35:37.725Z,12.52
2017-10-24T19:38:06.198Z,12.54
2017-10-24T19:40:34.680Z,12.57
2017-10-24T19:43:03.155Z,12.59
2017-10-24T19:45:31.596Z,12.59
2017-10-24T19:48:00.946Z,12.60
2017-10-24T19:50:29.391Z,12.64
2017-10-24T19:52:58.621Z,12.62
2017-10-24T19:55:27.057Z,12.66
2017-10-24T19:57:56.368Z,12.66
2017-10-24T20:00:24.934Z,12.68
2017-10-24T20:02:53.378Z,12.69
2017-10-24T20:05:21.858Z,12.69
2017-10-24T20:07:50.298Z,12.69
2017-10-24T20:10:19.534Z,12.73
2017-10-24T20:12:48.413Z,12.75
2017-10-24T20:15:16.906Z,12.76
2017-10-24T20:17:45.349Z,12.79
2017-10-24T20:20:14.581Z,12.82
2017-10-24T20:22:43.021Z,12.82
2017-10-24T20:25:12.249Z,12.85
2017-10-24T20:27:40.689Z,12.87
2017-10-24T20:30:09.157Z,12.88
2017-10-24T20:32:37.593Z,12.88
2017-10-24T20:35:06.099Z,12.90
2017-10-24T20:37:34.537Z,12.94
2017-10-24T20:40:03.779Z,12.94
2017-10-24T20:42:32.241Z,12.97
2017-10-24T20:45:00.750Z,12.98
2017-10-24T20:47:29.331Z,12.99
2017-10-24T20:49:57.768Z,12.99
2017-10-24T20:52:27.105Z,12.97
2017-10-24T20:54:55.545Z,13.00
2017-10-24T20:57:24.769Z,13.03
2017-10-24T20:59:53.214Z,13.02
2017-10-24T21:02:21.677Z,13.01
2017-10-24T21:04:50.117Z,13.03
2017-10-24T21:07:18.618Z,13.02
2017-10-24T21:09:47.099Z,13.05
2017-10-24T21:12:15.653Z,13.06
2017-10-24T21:14:44.853Z,13.04
2017-10-24T21:17:13.357Z,13.06
2017-10-24T21:19:41.806Z,13.09
2017-10-24T21:22:11.038Z,13.12
2017-10-24T21:24:39.528Z,13.12
2017-10-24T21:27:07.974Z,13.12
2017-10-24T21:29:37.306Z,13.16
2017-10-24T21:32:05.795Z,13.15
2017-10-24T21:34:34.370Z,13.17
2017-10-24T21:37:02.859Z,13.18
2017-10-24T21:39:31.316Z,13.20
2017-10-24T21:41:59.762Z,13.21
2017-10-24T21:44:28.233Z,13.23
2017-10-24T21:46:56.783Z,13.20
2017-10-24T21:49:25.253Z,13.22
2017-10-24T21:51:53.751Z,13.23
2017-10-24T21:54:22.215Z,13.25
2017-10-24T21:56:50.715Z,13.27
2017-10-24T21:59:19.300Z,13.31
2017-10-24T22:01:47.774Z,13.25
2017-10-24T22:04:16.234Z,13.24
2017-10-24T22:06:44.710Z,13.24
2017-10-24T22:09:13.920Z,13.26
2017-10-24T22:11:42.530Z,13.28
2017-10-24T22:14:10.977Z,13.29
2017-10-24T22:16:40.210Z,13.30
2017-10-24T22:19:08.649Z,13.32
2017-10-24T22:21:37.881Z,13.35
2017-10-24T22:24:06.326Z,13.37
2017-10-24T22:26:35.563Z,13.38
2017-10-24T22:29:04.018Z,13.38
2017-10-24T22:31:33.245Z,13.38
2017-10-24T22:34:01.730Z,13.38
2017-10-24T22:36:30.201Z,13.37
2017-10-24T22:38:58.703Z,13.39
2017-10-24T22:41:27.177Z,13.40
2017-10-24T22:43:55.617Z,13.42
2017-10-24T22:46:24.965Z,13.43
2017-10-24T22:48:53.446Z,13.41
2017-10-24T22:51:21.912Z,13.44
2017-10-24T22:53:50.410Z,13.42
2017-10-24T22:56:18.856Z,13.45
2017-10-24T22:58:48.195Z,13.47
2017-10-24T23:01:16.774Z,13.47
2017-10-24T23:03:45.237Z,13.46
2017-10-24T23:06:13.738Z,13.47
2017-10-24T23:08:42.219Z,13.48
2017-10-24T23:11:10.665Z,13.49
2017-10-24T23:13:39.993Z,13.52
2017-10-24T23:16:08.438Z,13.52
2017-10-24T23:18:37.785Z,13.48
2017-10-24T23:21:06.267Z,13.47
2017-10-24T23:23:34.725Z,13.48
2017-10-24T23:26:03.944Z,13.47
2017-10-24T23:28:32.421Z,13.46
2017-10-24T23:31:00.871Z,13.46
2017-10-24T23:33:30.105Z,13.47
2017-10-24T23:35:58.550Z,13.47
2017-10-24T23:38:27.871Z,13.41
2017-10-24T23:40:56.379Z,13.44
2017-10-24T23:43:24.841Z,13.41
2017-10-24T23:45:53.287Z,13.43
2017-10-24T23:48:21.823Z,13.41
2017-10-24T23:50:50.274Z,13.43
2017-10-24T23:53:19.485Z,13.42
2017-10-24T23:55:47.954Z,13.44
2017-10-24T23:58:17.157Z,13.44
